Meteo Giornale » Osservazioni meteo Italia » Verona-Villafranca

ore: 19:50 - Osservazioni Meteo Verona-Villafranca
Lat. 45° 23' N Lon. 10° 52' E Alt. 67 metri s.l.m.

sereno Europe/Rome

24 °C

Sereno

Temp. 24 Ore

12 °C

26 °C

Nord

3.7 Km/h

Dew point 12 °C

Umidità 47 %

Visibilità  10 Km

Il sole sorge alle ore 06:13

Il sole tramonta alle ore 20:15

Data e Ora Cielo e Fenomeni T °C DP °C Um. % Pres. hPa Vis. km Vento km/h
Oggi h: 19:50 sereno Sereno 24 12 47 1015 10 N 3.7
Oggi h: 19:20 sereno Sereno 25 13 47 1015 10 N 5.5
Oggi h: 18:50 sereno Sereno 25 13 47 1015 10 SO 7.4
Oggi h: 18:20 sereno Sereno 26 14 47 1015 10 N 5.5
Oggi h: 17:50 sereno Sereno 26 12 41 1015 10 N 3.7
Oggi h: 17:20 sereno Sereno 26 13 44 1015 10 N 3.7
Oggi h: 16:50 sereno Sereno 26 12 41 1016 10 N 1.8
Oggi h: 16:20 sereno Sereno 25 12 44 1016 10 N 5.5
Oggi h: 15:50 sereno Sereno 26 11 39 1016 10 N 7.4
Oggi h: 15:20 sereno Sereno 26 11 39 1017 10 N 7.4
Oggi h: 14:50 sereno Sereno 25 11 41 1017 10 N 7.4
Oggi h: 14:20 sereno Sereno 25 11 41 1017 10 E 13
Oggi h: 13:50 sereno Sereno 25 11 41 1018 10 E/SE 7.4
Oggi h: 13:20 sereno Sereno 24 10 41 1018 10 SE 9.3
Oggi h: 12:20 sereno Sereno 23 9 40 1018 10 E 9.3
Oggi h: 11:50 sereno Sereno 23 9 40 1018 10 E 9.3
Oggi h: 11:20 sereno Sereno 22 11 49 1018 10 E/SE 7.4
Oggi h: 10:50 sereno Sereno 21 13 60 1018 9 N 5.5
Oggi h: 10:20 sereno Sereno 20 13 64 1018 7 N 5.5
Oggi h: 09:50 sereno Sereno 19 13 68 1018 7 N 5.5
Oggi h: 09:20 sereno Sereno 18 14 77 1018 6 E/SE 7.4
Oggi h: 08:50 sereno Sereno 16 13 82 1018 6 N 3.7
Oggi h: 08:20 sereno Sereno 16 13 82 1017 6 N 1.8
Oggi h: 07:50 foschia Foschia 15 13 87 1017 5 N 1.8
Oggi h: 07:20 foschia Foschia 13 12 93 1017 5 N 1.8
Oggi h: 06:50 foschia Foschia 12 12 100 1016 5 N 3.7
Oggi h: 06:20 sereno Sereno 12 11 93 1016 6 N 3.7
Oggi h: 05:50 sereno Sereno 12 12 100 1016 9 N 1.8
Oggi h: 05:20 sereno Sereno 13 12 93 1015 10 N 1.8
Oggi h: 04:50 sereno Sereno 13 12 93 1015 10 N 3.7
Oggi h: 04:20 sereno Sereno 13 12 93 1015 10 N 1.8
Oggi h: 03:50 sereno Sereno 13 12 93 1015 10 N 1.8
Oggi h: 03:20 sereno Sereno 14 12 87 1015 10 N 1.8
Oggi h: 02:50 sereno Sereno 14 13 93 1015 10 N 1.8
Oggi h: 02:20 sereno Sereno 14 13 93 1015 10 N 3.7
Oggi h: 01:50 sereno Sereno 16 13 82 1015 10 N 3.7
Oggi h: 01:20 sereno Sereno 16 13 82 1015 10 N 3.7
Oggi h: 00:50 sereno Sereno 16 13 82 1015 10 N 5.5
Oggi h: 00:20 sereno Sereno 17 14 82 1015 10 N 5.5
Ieri h: 23:50 sereno Sereno 18 14 77 1015 10 N 3.7
Ieri h: 23:20 sereno Sereno 19 4 37 1015 10 E 7.4
Ieri h: 22:50 sereno Sereno 19 14 72 1015 10 E/NE 11.1
Ieri h: 22:20 sereno Sereno 19 15 77 1015 10 E/NE 13
Ieri h: 21:50 sereno Sereno 19 12 63 1015 10 N 5.5
Ieri h: 21:20 sereno Sereno 19 12 63 1015 10 N 5.5
Ieri h: 20:50 sereno Sereno 20 13 64 1015 10 N 3.7